Wavre, Belgium
Current Conditions -  °F | °C
As of 11:25 PM on Wednesday 22 Oct 2014 (Local Time) from EBBE Reporting Station
Broken Clouds Broken Clouds  
Wind Chill: 43°   Ceiling: 5000
Heat Index: 46°   Visibility: 6mi
Dew Point: 43°   Wind: 7mph
Humidity: 87%   Direction: 240°WSW
Pressure: 30.24"   Gusts: NA
Location:  50.72°N, 4.6°E
Report Text: EBBE 222125Z AUTO 24006KT 9999 BKN050/// 08/06 Q1024 BLU
Loading
Personal Weather Stations






























Interactive Weather Map
Tropical Storm Tracking
New forecast layout! Learn more

10-Day Weather Forecast

Advertisements
Track Severe Weather on mobile